Time;durP1;ratioP1;P1;durP2;ratioP2;P2;SDS_P1;SDS_P2;PMS_P1;PMS_P2;Temp;Humidity;BMP_temperature;BMP_pressure;BME280_temperature;BME280_humidity;BME280_pressure;Samples;Min_cycle;Max_cycle;Signal;HPM_P1;HPM_P2
2022/02/04 00:06:20;;;;;;;12.83;7.50;;;5.10;99.90;;;;;;5057823;28;20343;-58
2022/02/04 00:25:40;;;;;;;16.87;8.67;;;5.00;99.90;;;;;;5034158;28;20351;-58
2022/02/04 00:28:12;;;;;;;17.87;8.23;;;5.00;99.90;;;;;;5060285;28;20728;-58
2022/02/04 00:30:44;;;;;;;14.30;7.50;;;5.00;99.90;;;;;;5061562;28;20262;-58
2022/02/04 00:33:13;;;;;;;20.13;7.93;;;5.00;99.90;;;;;;5063184;28;20224;-57
2022/02/04 00:35:53;;;;;;;16.20;7.87;;;5.10;99.90;;;;;;5064770;28;20285;-58
2022/02/04 00:38:27;;;;;;;19.07;8.07;;;5.10;99.90;;;;;;5065186;28;20212;-58
2022/02/04 00:41:01;;;;;;;17.00;7.63;;;5.10;99.90;;;;;;5062328;28;20525;-57
2022/02/04 00:43:29;;;;;;;14.60;7.50;;;5.10;99.90;;;;;;5064241;28;20202;-57
2022/02/04 00:46:04;;;;;;;15.40;7.23;;;5.10;99.90;;;;;;5046600;28;20206;-58
2022/02/04 00:48:39;;;;;;;22.10;9.97;;;5.10;99.90;;;;;;5065005;28;20185;-55
2022/02/04 00:51:14;;;;;;;15.83;8.10;;;5.10;99.90;;;;;;5064277;28;20278;-57
2022/02/04 00:53:50;;;;;;;19.53;8.90;;;5.20;99.90;;;;;;5065193;28;20190;-58
2022/02/04 00:56:24;;;;;;;19.80;9.20;;;5.20;99.90;;;;;;5053953;28;20557;-58
2022/02/04 01:26:43;;;;;;;19.17;9.37;;;5.40;99.90;;;;;;4985105;28;20213;-57
2022/02/04 01:29:12;;;;;;;18.57;8.67;;;5.50;99.90;;;;;;5023589;28;20220;-55
2022/02/04 01:31:39;;;;;;;14.00;7.23;;;5.50;99.90;;;;;;5049940;28;20198;-57
2022/02/04 01:34:06;;;;;;;21.87;9.90;;;5.50;99.90;;;;;;5050786;28;20274;-58
2022/02/04 01:36:33;;;;;;;21.13;10.30;;;5.60;99.90;;;;;;5050494;28;20539;-57
2022/02/04 01:39:02;;;;;;;16.03;8.73;;;5.60;99.90;;;;;;5050927;28;20210;-57
2022/02/04 01:41:29;;;;;;;16.73;8.27;;;5.60;99.90;;;;;;5048125;28;20249;-56
2022/02/04 01:43:56;;;;;;;18.63;9.33;;;5.60;99.90;;;;;;5049819;28;20737;-58
2022/02/04 01:46:23;;;;;;;13.60;7.40;;;5.60;99.90;;;;;;5049945;28;20191;-57
2022/02/04 01:48:51;;;;;;;20.37;9.37;;;5.60;99.90;;;;;;5050704;28;20203;-58
2022/02/04 01:51:19;;;;;;;18.07;8.87;;;5.60;99.90;;;;;;5049810;28;20202;-59
2022/02/04 01:53:46;;;;;;;15.70;7.23;;;5.70;99.90;;;;;;5050228;28;20200;-57
2022/02/04 01:56:15;;;;;;;13.87;7.10;;;5.60;99.90;;;;;;5047641;28;20200;-58
2022/02/04 01:58:43;;;;;;;12.30;6.37;;;6.20;99.90;;;;;;5037988;28;20592;-58
2022/02/04 02:01:11;;;;;;;10.00;5.83;;;5.60;99.90;;;;;;5036095;28;20212;-59
2022/02/04 02:03:38;;;;;;;10.13;5.73;;;5.60;99.90;;;;;;5037777;28;20205;-57
2022/02/04 02:06:10;;;;;;;7.73;4.50;;;5.60;99.90;;;;;;5019760;28;20645;-59
2022/02/04 02:08:39;;;;;;;11.80;5.33;;;5.60;99.90;;;;;;5038511;28;20307;-57
2022/02/04 02:11:08;;;;;;;9.80;5.03;;;5.60;99.90;;;;;;5044355;28;20196;-60
2022/02/04 02:13:44;;;;;;;10.70;6.07;;;5.60;99.90;;;;;;5050111;28;20198;-58
2022/02/04 02:16:27;;;;;;;10.03;4.73;;;5.60;99.90;;;;;;5049257;28;20564;-58
2022/02/04 02:33:20;;;;;;;9.97;5.63;;;5.50;99.90;;;;;;5049001;28;20209;-58
2022/02/04 02:36:08;;;;;;;20.40;8.73;;;5.60;99.90;;;;;;5031043;28;20240;-58
2022/02/04 02:44:23;;;;;;;10.03;5.43;;;5.60;99.90;;;;;;5048874;28;20277;-59
2022/02/04 02:47:11;;;;;;;8.43;5.30;;;5.60;99.90;;;;;;5049416;28;20312;-59
2022/02/04 02:50:03;;;;;;;12.63;6.20;;;5.60;99.90;;;;;;5040672;28;20195;-58
2022/02/04 02:52:45;;;;;;;8.20;5.10;;;5.60;99.90;;;;;;5047705;28;20625;-58
2022/02/04 02:55:25;;;;;;;7.20;4.60;;;5.70;99.90;;;;;;5038748;28;20197;-58
2022/02/04 02:58:07;;;;;;;8.13;4.77;;;5.60;99.90;;;;;;5049393;28;20200;-58
2022/02/04 03:00:48;;;;;;;10.50;5.23;;;5.70;99.90;;;;;;5044099;28;20285;-58
2022/02/04 03:03:17;;;;;;;8.53;4.73;;;5.70;99.90;;;;;;5024957;28;20690;-58
2022/02/04 03:05:44;;;;;;;7.47;4.67;;;5.70;99.90;;;;;;5043089;28;20261;-58
2022/02/04 03:08:12;;;;;;;6.10;4.30;;;5.70;99.90;;;;;;5044661;28;20207;-58
2022/02/04 03:10:40;;;;;;;7.40;4.83;;;5.70;99.90;;;;;;5032230;28;20291;-57
2022/02/04 03:13:07;;;;;;;9.23;5.33;;;5.70;99.90;;;;;;5047892;28;20670;-57
2022/02/04 03:15:36;;;;;;;10.90;5.33;;;5.70;99.90;;;;;;5030254;28;20221;-58
2022/02/04 03:18:06;;;;;;;10.37;5.37;;;5.60;99.90;;;;;;5048930;28;20197;-58
2022/02/04 03:20:42;;;;;;;10.83;5.50;;;5.60;99.90;;;;;;5048549;28;20552;-58
2022/02/04 03:23:09;;;;;;;9.90;5.53;;;5.60;99.90;;;;;;5049565;28;20211;-59
2022/02/04 03:25:41;;;;;;;10.43;5.43;;;5.60;99.90;;;;;;5028619;28;20732;-57
2022/02/04 03:28:14;;;;;;;13.23;6.70;;;5.60;99.90;;;;;;5031425;28;20748;-56
2022/02/04 03:30:43;;;;;;;8.20;5.10;;;5.60;99.90;;;;;;5017452;28;20748;-58
2022/02/04 03:33:10;;;;;;;9.00;5.50;;;5.60;99.90;;;;;;5048948;28;20198;-59
2022/02/04 03:35:37;;;;;;;7.30;4.70;;;5.60;99.90;;;;;;5026537;28;20211;-59
2022/02/04 03:38:05;;;;;;;7.70;4.67;;;5.60;99.90;;;;;;5042038;28;20249;-57
2022/02/04 03:40:32;;;;;;;9.60;5.37;;;5.60;99.90;;;;;;5046831;28;20198;-58
2022/02/04 03:42:59;;;;;;;8.13;5.10;;;5.60;99.90;;;;;;5039229;28;20647;-58
2022/02/04 03:45:28;;;;;;;9.20;5.10;;;5.60;99.90;;;;;;5047715;28;20310;-59
2022/02/04 03:47:55;;;;;;;11.37;5.83;;;5.60;99.90;;;;;;5048827;28;20268;-58
2022/02/04 03:50:22;;;;;;;7.47;4.60;;;5.60;99.90;;;;;;5038986;28;20208;-58
2022/02/04 03:52:49;;;;;;;7.23;4.50;;;5.60;99.90;;;;;;5048582;28;20278;-59
2022/02/04 03:55:16;;;;;;;5.93;3.33;;;5.60;99.90;;;;;;5039273;28;20208;-58
2022/02/04 03:57:43;;;;;;;7.50;4.13;;;5.60;99.90;;;;;;5045634;28;20196;-58
2022/02/04 04:00:14;;;;;;;5.30;3.73;;;5.60;99.90;;;;;;5048489;28;20269;-59
2022/02/04 04:02:46;;;;;;;6.33;4.20;;;5.60;99.90;;;;;;5048745;28;20216;-55
2022/02/04 04:05:13;;;;;;;6.40;3.80;;;5.70;99.90;;;;;;5048068;28;20212;-57
2022/02/04 04:07:45;;;;;;;7.37;4.10;;;5.70;99.90;;;;;;5049121;28;20531;-59
2022/02/04 04:10:17;;;;;;;9.73;4.60;;;5.70;99.90;;;;;;5045325;28;20619;-58
2022/02/04 04:12:44;;;;;;;6.70;4.00;;;5.70;99.90;;;;;;5048095;28;20453;-59
2022/02/04 04:15:11;;;;;;;6.80;4.27;;;5.70;99.90;;;;;;5047220;28;20196;-58
2022/02/04 04:17:41;;;;;;;7.53;4.13;;;5.70;99.90;;;;;;5048353;28;20267;-58
2022/02/04 04:20:12;;;;;;;6.60;3.90;;;5.70;99.90;;;;;;5047644;28;20278;-58
2022/02/04 04:22:39;;;;;;;5.77;3.53;;;5.70;99.90;;;;;;5041594;28;20690;-57
2022/02/04 04:25:07;;;;;;;5.97;3.73;;;5.70;99.90;;;;;;5024334;28;20614;-58
2022/02/04 04:27:34;;;;;;;6.13;3.60;;;5.70;99.90;;;;;;5038508;28;20639;-58
2022/02/04 04:30:02;;;;;;;5.23;3.23;;;5.70;99.90;;;;;;5048100;28;20645;-57
2022/02/04 04:32:29;;;;;;;5.63;3.67;;;5.20;99.90;;;;;;5020606;28;20211;-58
2022/02/04 04:34:56;;;;;;;6.17;3.60;;;5.70;99.90;;;;;;5051190;28;20687;-58
2022/02/04 04:37:25;;;;;;;4.43;2.90;;;5.70;99.90;;;;;;5051406;28;20187;-57
2022/02/04 04:40:05;;;;;;;4.43;3.07;;;5.80;99.90;;;;;;5041459;28;20213;-58
2022/02/04 04:42:48;;;;;;;5.80;3.13;;;5.80;99.90;;;;;;5034124;28;20293;-58
2022/02/04 05:29:09;;;;;;;7.53;4.17;;;5.60;99.90;;;;;;5045005;28;20577;-59
2022/02/04 05:31:36;;;;;;;7.17;4.40;;;5.80;99.90;;;;;;5050365;28;20203;-59
2022/02/04 05:34:04;;;;;;;6.20;4.20;;;5.80;99.90;;;;;;5047408;28;20196;-58
2022/02/04 05:36:34;;;;;;;7.10;3.93;;;5.80;99.90;;;;;;5046754;28;20200;-57
2022/02/04 05:39:01;;;;;;;21.27;8.77;;;5.80;99.90;;;;;;5050933;28;20668;-58
2022/02/04 05:41:33;;;;;;;11.73;6.47;;;5.70;99.90;;;;;;5048397;28;20249;-58
2022/02/04 05:44:05;;;;;;;11.23;5.77;;;5.80;99.90;;;;;;5047989;28;20246;-57
2022/02/04 05:46:37;;;;;;;11.90;5.00;;;5.80;99.90;;;;;;5031609;28;20216;-58
2022/02/04 05:49:04;;;;;;;18.23;8.07;;;5.90;99.90;;;;;;5050185;28;20223;-57
2022/02/04 05:51:41;;;;;;;19.13;8.57;;;5.90;99.90;;;;;;5050035;28;20199;-58
2022/02/04 05:54:15;;;;;;;21.03;8.20;;;5.90;99.90;;;;;;5048602;28;20534;-58
2022/02/04 05:56:53;;;;;;;14.63;7.13;;;5.90;99.90;;;;;;5048430;28;20689;-58
2022/02/04 05:59:28;;;;;;;12.63;6.17;;;5.90;99.90;;;;;;5050285;28;20268;-58
2022/02/04 06:02:03;;;;;;;11.73;5.43;;;5.90;99.90;;;;;;5050255;28;20195;-58
2022/02/04 06:04:48;;;;;;;9.13;5.00;;;5.90;99.90;;;;;;5032048;28;20215;-58
2022/02/04 06:07:29;;;;;;;6.87;4.17;;;5.90;99.90;;;;;;5050288;28;20312;-58
2022/02/04 06:13:10;;;;;;;13.33;6.33;;;5.90;99.90;;;;;;5034752;28;20505;-56
2022/02/04 06:23:50;;;;;;;9.27;5.10;;;6.00;99.90;;;;;;5050392;28;20207;-57
2022/02/04 06:26:17;;;;;;;7.97;4.30;;;6.00;99.90;;;;;;5047512;28;20223;-58
2022/02/04 06:28:46;;;;;;;24.13;8.60;;;5.90;99.90;;;;;;5043045;28;20261;-57
2022/02/04 06:31:13;;;;;;;15.37;7.27;;;6.00;99.90;;;;;;5039696;28;20305;-58
2022/02/04 06:33:40;;;;;;;10.97;5.83;;;6.00;99.90;;;;;;5049634;28;20693;-57
2022/02/04 06:36:08;;;;;;;17.33;8.03;;;6.00;99.90;;;;;;5042801;28;20592;-57
2022/02/04 06:38:35;;;;;;;19.97;8.33;;;6.00;99.90;;;;;;5049469;28;20207;-57
2022/02/04 06:41:03;;;;;;;19.83;8.10;;;6.00;99.90;;;;;;5042561;28;20273;-57
2022/02/04 06:43:31;;;;;;;15.07;6.73;;;6.00;99.90;;;;;;5048930;28;20423;-58
2022/02/04 06:45:59;;;;;;;14.67;6.87;;;6.00;99.90;;;;;;5048754;28;20296;-58
2022/02/04 06:48:26;;;;;;;10.87;5.53;;;6.10;99.90;;;;;;5047200;28;20287;-59
2022/02/04 06:50:53;;;;;;;10.47;5.37;;;6.00;99.90;;;;;;5031188;28;20674;-58
2022/02/04 06:53:20;;;;;;;9.33;5.17;;;6.00;99.90;;;;;;5048458;28;20622;-57
2022/02/04 06:55:48;;;;;;;11.37;5.87;;;6.00;99.90;;;;;;5046708;28;20195;-57
2022/02/04 06:58:15;;;;;;;8.97;4.80;;;6.00;99.90;;;;;;5049392;28;20200;-58
2022/02/04 07:00:42;;;;;;;7.43;4.30;;;6.10;99.90;;;;;;5049089;28;20204;-59
2022/02/04 07:03:11;;;;;;;7.03;3.83;;;6.10;99.90;;;;;;5046645;28;20200;-59
2022/02/04 07:05:42;;;;;;;5.60;3.20;;;6.10;99.90;;;;;;5029066;28;20216;-58
2022/02/04 07:08:16;;;;;;;5.97;3.40;;;6.10;99.90;;;;;;5047698;28;20252;-58
2022/02/04 07:11:02;;;;;;;7.67;3.87;;;6.10;99.90;;;;;;5031204;28;20303;-58
2022/02/04 07:13:41;;;;;;;4.37;2.90;;;6.20;99.90;;;;;;5045411;28;20192;-59
2022/02/04 07:16:24;;;;;;;4.37;3.10;;;6.20;99.90;;;;;;5048003;28;20196;-59
2022/02/04 07:21:37;;;;;;;6.73;3.60;;;6.20;99.90;;;;;;5038888;28;20206;-58
2022/02/04 07:24:04;;;;;;;6.83;3.80;;;6.20;99.90;;;;;;5035052;28;20289;-58
2022/02/04 07:26:32;;;;;;;5.67;3.70;;;6.30;99.90;;;;;;5037929;28;20238;-59
2022/02/04 07:28:59;;;;;;;7.00;3.70;;;6.30;99.90;;;;;;5040127;28;20537;-57
2022/02/04 07:31:30;;;;;;;6.77;4.03;;;6.30;99.90;;;;;;5022061;28;20219;-57
2022/02/04 07:34:11;;;;;;;7.23;3.70;;;6.40;99.90;;;;;;5048689;28;20192;-58
2022/02/04 07:42:14;;;;;;;9.87;4.87;;;6.40;99.90;;;;;;4967488;28;20570;-59
2022/02/04 07:44:41;;;;;;;11.10;5.70;;;6.40;99.90;;;;;;5042867;28;20606;-57
2022/02/04 07:47:11;;;;;;;11.03;5.50;;;6.40;99.90;;;;;;5048709;28;20281;-58
2022/02/04 07:49:39;;;;;;;10.87;4.73;;;6.40;99.90;;;;;;5045668;28;20213;-59
2022/02/04 07:52:06;;;;;;;7.43;4.47;;;6.40;99.90;;;;;;5047237;28;20574;-58
2022/02/04 07:54:34;;;;;;;7.23;4.20;;;6.40;99.90;;;;;;5047727;28;20212;-58
2022/02/04 07:57:01;;;;;;;6.47;4.23;;;6.40;99.90;;;;;;5046708;28;20665;-58
2022/02/04 07:59:28;;;;;;;8.07;4.10;;;6.40;99.90;;;;;;5048018;28;20202;-58
2022/02/04 08:01:55;;;;;;;6.47;3.90;;;6.50;99.90;;;;;;5020639;28;20220;-58
2022/02/04 08:04:26;;;;;;;7.07;4.73;;;6.50;99.90;;;;;;5044292;28;20259;-59
2022/02/04 08:07:00;;;;;;;7.43;4.40;;;6.50;99.90;;;;;;5032694;28;20224;-58
2022/02/04 08:09:36;;;;;;;7.90;5.10;;;6.60;99.90;;;;;;5039490;28;20207;-58
2022/02/04 08:14:58;;;;;;;14.47;6.97;;;6.70;99.90;;;;;;5047477;28;20213;-57
2022/02/04 08:17:59;;;;;;;18.47;8.70;;;6.80;99.90;;;;;;5040276;28;20688;-58
2022/02/04 08:20:57;;;;;;;14.33;6.50;;;6.90;99.90;;;;;;5051118;28;20212;-59
2022/02/04 08:26:27;;;;;;;12.73;6.50;;;7.00;99.90;;;;;;5012736;28;20560;-58
2022/02/04 08:29:21;;;;;;;12.73;6.83;;;7.00;99.90;;;;;;5050048;28;20201;-59
2022/02/04 08:32:09;;;;;;;11.73;6.60;;;7.00;99.90;;;;;;5033026;28;20615;-58
2022/02/04 08:34:54;;;;;;;9.13;5.90;;;7.00;99.90;;;;;;5043566;28;20553;-57
2022/02/04 08:52:08;;;;;;;11.23;6.17;;;7.10;99.90;;;;;;4993828;28;20210;-58
2022/02/04 08:54:39;;;;;;;6.63;4.43;;;7.10;99.90;;;;;;5050624;28;20197;-58
2022/02/04 08:57:12;;;;;;;7.03;4.47;;;7.10;99.90;;;;;;5050074;28;20249;-58
2022/02/04 08:59:52;;;;;;;8.53;5.30;;;7.10;99.90;;;;;;5051067;28;20199;-58
2022/02/04 09:02:32;;;;;;;7.60;4.17;;;7.10;99.90;;;;;;5052123;28;20196;-58
2022/02/04 09:05:03;;;;;;;5.90;4.07;;;7.10;99.90;;;;;;5021455;28;20208;-58
2022/02/04 09:07:43;;;;;;;7.00;4.37;;;7.10;99.90;;;;;;5051024;28;20237;-57
2022/02/04 09:10:12;;;;;;;7.77;5.13;;;7.10;99.90;;;;;;5048429;28;20671;-57
2022/02/04 09:21:24;;;;;;;7.83;5.43;;;7.30;99.90;;;;;;5028754;28;20205;-56
2022/02/04 09:23:51;;;;;;;8.70;5.00;;;7.30;99.90;;;;;;5046697;28;20202;-58
2022/02/04 09:26:18;;;;;;;6.23;4.47;;;7.30;99.90;;;;;;5048125;28;20593;-57
2022/02/04 09:28:47;;;;;;;5.00;3.97;;;7.30;99.90;;;;;;5049754;28;20200;-58
2022/02/04 09:31:14;;;;;;;8.97;5.00;;;7.30;99.90;;;;;;5032169;28;20202;-59
2022/02/04 09:33:41;;;;;;;12.13;6.23;;;7.30;99.90;;;;;;5050377;28;20206;-57
2022/02/04 09:36:08;;;;;;;8.77;5.37;;;7.30;99.90;;;;;;5050510;28;20213;-57
2022/02/04 09:38:35;;;;;;;7.57;5.03;;;7.30;99.90;;;;;;5050664;28;20205;-59
2022/02/04 09:41:02;;;;;;;7.40;4.23;;;7.30;99.90;;;;;;5041472;28;20678;-57
2022/02/04 09:43:31;;;;;;;5.87;3.77;;;7.30;99.90;;;;;;5047638;28;20581;-58
2022/02/04 09:46:00;;;;;;;7.60;4.30;;;7.30;99.90;;;;;;5049722;28;20197;-58
2022/02/04 09:48:28;;;;;;;5.47;3.43;;;7.30;99.90;;;;;;5050200;28;20190;-56
2022/02/04 09:50:56;;;;;;;5.33;3.50;;;7.30;99.90;;;;;;5042672;28;20683;-58
2022/02/04 10:04:53;;;;;;;8.17;5.13;;;7.40;99.90;;;;;;5030913;28;20227;-57
2022/02/04 10:10:36;;;;;;;10.07;5.20;;;7.40;99.90;;;;;;5039033;28;20185;-58
2022/02/04 10:13:34;;;;;;;8.10;5.17;;;7.40;99.90;;;;;;5039647;28;20255;-57
2022/02/04 10:18:51;;;;;;;12.33;6.80;;;7.50;99.90;;;;;;5045830;28;20661;-59
2022/02/04 10:21:18;;;;;;;9.57;5.50;;;7.50;99.90;;;;;;5044531;28;20209;-58
2022/02/04 10:23:47;;;;;;;8.13;5.13;;;7.50;99.90;;;;;;5044445;28;20201;-56
2022/02/04 10:26:15;;;;;;;5.37;4.07;;;7.60;99.90;;;;;;5047214;28;20252;-57
2022/02/04 10:28:43;;;;;;;4.50;3.47;;;7.60;99.90;;;;;;5048273;28;20205;-57
2022/02/04 10:31:16;;;;;;;9.33;5.10;;;7.60;99.90;;;;;;5031082;28;20256;-58
2022/02/04 10:33:58;;;;;;;5.33;3.77;;;7.70;99.90;;;;;;5049010;28;20202;-58
2022/02/04 10:36:54;;;;;;;6.27;3.90;;;7.70;99.90;;;;;;5021697;28;20195;-58
2022/02/04 10:39:29;;;;;;;5.10;3.33;;;7.80;99.90;;;;;;5035115;28;20218;-60
2022/02/04 10:42:14;;;;;;;4.00;2.67;;;7.90;99.90;;;;;;5028476;28;20619;-57
2022/02/04 10:47:45;;;;;;;10.40;5.63;;;8.00;99.90;;;;;;5049034;28;20217;-57
2022/02/04 10:50:43;;;;;;;7.90;4.87;;;8.00;99.90;;;;;;5030474;28;20754;-57
2022/02/04 10:53:33;;;;;;;14.13;7.63;;;8.10;99.90;;;;;;5046936;28;20281;-58
2022/02/04 10:56:41;;;;;;;19.27;8.03;;;8.10;99.90;;;;;;5036143;28;20202;-57
2022/02/04 11:05:01;;;;;;;12.00;7.57;;;8.00;99.90;;;;;;5016904;28;20606;-58
2022/02/04 11:35:57;;;;;;;15.57;8.97;;;8.00;99.90;;;;;;5035037;28;20267;-58
2022/02/04 11:47:53;;;;;;;16.43;9.13;;;8.10;99.90;;;;;;5044555;28;20229;-57
2022/02/04 11:52:44;;;;;;;15.30;9.23;;;8.20;99.90;;;;;;4973394;28;20220;-58
2022/02/04 11:55:33;;;;;;;17.90;10.23;;;8.30;99.90;;;;;;5045997;28;20221;-58
2022/02/04 11:58:04;;;;;;;20.47;10.80;;;8.30;99.90;;;;;;5037110;28;20239;-58
2022/02/04 12:00:39;;;;;;;16.73;9.23;;;8.40;99.90;;;;;;5047945;28;20277;-59
2022/02/04 12:03:34;;;;;;;13.13;8.20;;;8.40;99.90;;;;;;5048650;28;20221;-58
2022/02/04 12:06:02;;;;;;;18.17;10.50;;;8.40;99.90;;;;;;5043734;28;20187;-59
2022/02/04 12:08:31;;;;;;;16.37;9.87;;;8.40;99.90;;;;;;5041513;28;20231;-59
2022/02/04 12:11:11;;;;;;;18.77;9.60;;;8.40;99.90;;;;;;5040459;28;20198;-59
2022/02/04 12:14:13;;;;;;;14.03;8.23;;;8.40;99.90;;;;;;5043580;28;20215;-59
2022/02/04 12:17:02;;;;;;;17.13;9.73;;;8.40;99.90;;;;;;5040272;28;20194;-59
2022/02/04 12:19:41;;;;;;;18.60;11.17;;;8.40;99.90;;;;;;5031561;28;20203;-58
2022/02/04 12:22:10;;;;;;;17.03;10.00;;;8.40;99.90;;;;;;5045032;28;20304;-59
2022/02/04 12:24:50;;;;;;;10.03;7.10;;;8.30;99.90;;;;;;5047723;28;20202;-59
2022/02/04 12:27:28;;;;;;;11.20;7.50;;;8.20;99.90;;;;;;5030660;28;20232;-58
2022/02/04 12:29:58;;;;;;;12.83;8.40;;;8.40;99.90;;;;;;5047820;28;20202;-58
2022/02/04 12:32:26;;;;;;;22.80;12.57;;;8.50;99.90;;;;;;5030421;28;20213;-58
2022/02/04 12:34:54;;;;;;;18.77;11.43;;;8.50;99.90;;;;;;5047446;28;20204;-57
2022/02/04 12:37:21;;;;;;;14.43;9.27;;;8.50;99.90;;;;;;5026197;28;20198;-59
2022/02/04 12:39:49;;;;;;;15.80;9.00;;;8.50;99.90;;;;;;5041481;28;20198;-58
2022/02/04 12:42:19;;;;;;;13.13;8.73;;;8.50;99.90;;;;;;5044360;28;20195;-58
2022/02/04 12:44:48;;;;;;;21.50;11.47;;;8.50;99.90;;;;;;5017040;28;20651;-59
2022/02/04 12:47:20;;;;;;;17.37;10.87;;;8.50;99.90;;;;;;5041745;28;20597;-59
2022/02/04 12:49:50;;;;;;;19.83;11.10;;;8.50;99.90;;;;;;5047778;28;20229;-59
2022/02/04 12:52:22;;;;;;;16.97;10.20;;;8.50;99.90;;;;;;5049273;28;20190;-59
2022/02/04 12:54:54;;;;;;;14.93;8.77;;;8.40;99.90;;;;;;5049133;28;20251;-58
2022/02/04 12:57:37;;;;;;;12.63;8.10;;;8.40;99.90;;;;;;5052089;28;20196;-59
2022/02/04 13:00:20;;;;;;;19.00;11.33;;;8.40;99.90;;;;;;5040916;28;20724;-56
2022/02/04 13:08:40;;;;;;;19.43;12.00;;;8.40;99.90;;;;;;5047989;28;20780;-58
2022/02/04 13:11:10;;;;;;;18.43;10.83;;;8.40;99.90;;;;;;5048877;28;20201;-58
2022/02/04 13:13:46;;;;;;;19.00;10.77;;;8.40;99.90;;;;;;5032734;28;20214;-58
2022/02/04 13:16:15;;;;;;;20.27;10.80;;;8.40;99.90;;;;;;5050814;28;20200;-57
2022/02/04 13:18:44;;;;;;;16.53;10.33;;;8.40;99.90;;;;;;5047811;28;20200;-58
2022/02/04 13:21:13;;;;;;;20.00;11.73;;;8.40;99.90;;;;;;5024992;28;20206;-59
2022/02/04 13:23:41;;;;;;;20.53;11.40;;;8.40;99.90;;;;;;5046956;28;20554;-58
2022/02/04 13:26:08;;;;;;;20.00;11.17;;;8.50;99.90;;;;;;5029696;28;20209;-58
2022/02/04 13:28:37;;;;;;;17.33;10.57;;;8.50;99.90;;;;;;5028769;28;20305;-58
2022/02/04 13:31:05;;;;;;;21.13;11.70;;;8.50;99.90;;;;;;5044014;28;20208;-59
2022/02/04 13:33:34;;;;;;;24.17;13.40;;;8.50;99.90;;;;;;5050115;28;20193;-57
2022/02/04 13:36:17;;;;;;;17.50;10.23;;;8.50;99.90;;;;;;5042637;28;20203;-58
2022/02/04 13:38:52;;;;;;;20.07;10.93;;;8.50;99.90;;;;;;5047290;28;20280;-57
2022/02/04 13:41:29;;;;;;;20.13;11.67;;;8.50;99.90;;;;;;5028808;28;20300;-58
2022/02/04 13:46:58;;;;;;;24.50;12.73;;;8.40;99.90;;;;;;5040994;28;20765;-59
2022/02/04 13:49:53;;;;;;;20.33;12.03;;;8.40;99.90;;;;;;5049836;28;20202;-58
2022/02/04 13:52:43;;;;;;;22.33;12.40;;;8.40;99.90;;;;;;5049903;28;20205;-58
2022/02/04 13:55:25;;;;;;;19.30;10.63;;;8.40;99.90;;;;;;5047722;28;20221;-57
2022/02/04 13:58:18;;;;;;;18.80;10.40;;;8.40;99.90;;;;;;5039161;28;20186;-57
2022/02/04 14:00:50;;;;;;;17.97;10.80;;;8.30;99.90;;;;;;5049007;28;20195;-57
2022/02/04 14:03:20;;;;;;;19.87;10.70;;;8.40;99.90;;;;;;5049881;28;20220;-57
2022/02/04 14:05:54;;;;;;;15.93;9.43;;;8.40;99.90;;;;;;5037408;28;20268;-57
2022/02/04 14:08:31;;;;;;;21.47;12.30;;;8.40;99.90;;;;;;5049803;28;20264;-58
2022/02/04 14:11:03;;;;;;;22.47;12.20;;;8.40;99.90;;;;;;5046105;28;20197;-57
2022/02/04 14:13:31;;;;;;;18.30;10.87;;;8.40;99.90;;;;;;5049453;28;20593;-57
2022/02/04 14:16:00;;;;;;;22.33;11.43;;;8.40;99.90;;;;;;5044302;28;20606;-57
2022/02/04 14:18:29;;;;;;;25.27;13.00;;;8.40;99.90;;;;;;5047309;28;20195;-57
2022/02/04 14:20:56;;;;;;;25.07;12.10;;;8.40;99.90;;;;;;5048876;28;20198;-58
2022/02/04 14:23:32;;;;;;;22.53;11.67;;;8.40;99.90;;;;;;5046805;28;20206;-55
2022/02/04 14:26:06;;;;;;;20.00;10.83;;;8.40;99.90;;;;;;5041415;28;20193;-58
2022/02/04 14:28:40;;;;;;;23.80;11.30;;;8.40;99.90;;;;;;5049923;28;20634;-58
2022/02/04 14:31:15;;;;;;;22.43;11.10;;;8.40;99.90;;;;;;5038559;28;20239;-58
2022/02/04 14:36:42;;;;;;;21.20;10.97;;;8.40;99.90;;;;;;5030898;28;20240;-57
2022/02/04 14:50:35;;;;;;;19.73;10.43;;;8.40;99.90;;;;;;5030864;28;20194;-57
2022/02/04 14:53:09;;;;;;;16.90;9.10;;;8.40;99.90;;;;;;5049351;28;20204;-57
2022/02/04 15:01:23;;;;;;;20.67;10.43;;;8.40;99.90;;;;;;5046738;28;20201;-58
2022/02/04 15:04:04;;;;;;;27.93;14.00;;;8.30;99.90;;;;;;5047353;28;20198;-58
2022/02/04 15:06:34;;;;;;;26.73;13.27;;;8.30;99.90;;;;;;5039395;28;20276;-57
2022/02/04 15:09:04;;;;;;;18.47;10.03;;;8.30;99.90;;;;;;5047903;28;20213;-58
2022/02/04 15:11:35;;;;;;;18.10;10.33;;;8.30;99.90;;;;;;5046355;28;20276;-56
2022/02/04 15:14:06;;;;;;;17.30;9.50;;;8.20;99.90;;;;;;5047872;28;20212;-58
2022/02/04 15:16:34;;;;;;;17.60;9.97;;;8.20;99.90;;;;;;5048222;28;20205;-57
2022/02/04 15:19:01;;;;;;;19.07;11.10;;;8.20;99.90;;;;;;5022727;28;20202;-58
2022/02/04 15:21:29;;;;;;;17.70;10.63;;;8.20;99.90;;;;;;5023362;28;20206;-59
2022/02/04 15:23:58;;;;;;;17.87;10.20;;;8.20;99.90;;;;;;5041112;28;20202;-56
2022/02/04 15:26:28;;;;;;;19.00;10.83;;;8.20;99.90;;;;;;5022933;28;20251;-57
2022/02/04 15:29:00;;;;;;;18.03;9.93;;;8.20;99.90;;;;;;5048393;28;20267;-58
2022/02/04 15:31:40;;;;;;;19.53;10.37;;;8.30;99.90;;;;;;5030012;28;20194;-58
2022/02/04 15:34:08;;;;;;;20.33;11.63;;;8.20;99.90;;;;;;5039323;28;20193;-59
2022/02/04 15:36:40;;;;;;;25.27;11.43;;;8.20;99.90;;;;;;5026875;28;20220;-56
2022/02/04 15:39:09;;;;;;;21.50;10.97;;;8.30;99.90;;;;;;5029007;28;20297;-58
2022/02/04 15:41:38;;;;;;;26.17;13.60;;;8.20;99.90;;;;;;5039765;28;20209;-57
2022/02/04 15:44:13;;;;;;;32.93;15.10;;;8.30;99.90;;;;;;5044406;28;20288;-57
2022/02/04 15:47:01;;;;;;;30.30;15.50;;;8.20;99.90;;;;;;5029640;28;20209;-58
2022/02/04 15:49:53;;;;;;;30.97;15.67;;;8.20;99.90;;;;;;5046546;28;20205;-57
2022/02/04 15:55:25;;;;;;;22.70;12.23;;;8.10;99.90;;;;;;5024766;28;20512;-58
2022/02/04 15:58:00;;;;;;;30.77;15.80;;;8.10;99.90;;;;;;5048335;28;20214;-58
2022/02/04 16:00:38;;;;;;;26.03;12.93;;;8.10;99.90;;;;;;5048067;28;20189;-57
2022/02/04 16:03:29;;;;;;;23.07;11.33;;;8.10;99.90;;;;;;5048398;28;20201;-59
2022/02/04 16:05:56;;;;;;;16.83;9.40;;;8.20;99.90;;;;;;5041362;28;20198;-57
2022/02/04 16:08:23;;;;;;;22.47;11.70;;;8.20;99.90;;;;;;5049052;28;20257;-57
2022/02/04 16:10:57;;;;;;;25.27;12.20;;;8.20;99.90;;;;;;5045371;28;20198;-56
2022/02/04 16:13:35;;;;;;;19.30;10.33;;;8.20;99.90;;;;;;5040228;28;20197;-58
2022/02/04 16:16:09;;;;;;;22.37;11.80;;;8.20;99.90;;;;;;5048181;28;20537;-58
2022/02/04 16:18:43;;;;;;;19.07;10.23;;;8.20;99.90;;;;;;5026690;28;20202;-57
2022/02/04 16:21:17;;;;;;;27.27;13.70;;;8.20;99.90;;;;;;5039463;28;20680;-57
2022/02/04 16:29:09;;;;;;;17.47;10.37;;;8.10;99.90;;;;;;5051882;28;20217;-59
2022/02/04 16:31:38;;;;;;;25.10;11.83;;;8.10;99.90;;;;;;5047584;28;20347;-58
2022/02/04 16:34:09;;;;;;;27.80;13.83;;;8.10;99.90;;;;;;5052205;28;20270;-58
2022/02/04 16:36:38;;;;;;;25.33;12.80;;;8.00;99.90;;;;;;5051995;28;20209;-57
2022/02/04 16:39:08;;;;;;;25.03;12.53;;;8.00;99.90;;;;;;5034491;28;20615;-58
2022/02/04 16:41:48;;;;;;;25.77;12.60;;;8.00;99.90;;;;;;5050426;28;20273;-59
2022/02/04 16:44:15;;;;;;;21.97;11.07;;;8.00;99.90;;;;;;5046533;28;20234;-59
2022/02/04 16:46:44;;;;;;;23.53;10.70;;;7.90;99.90;;;;;;5043710;28;20198;-59
2022/02/04 16:49:11;;;;;;;19.60;10.57;;;7.90;99.90;;;;;;5052050;28;20775;-58
2022/02/04 16:51:40;;;;;;;21.50;11.13;;;7.90;99.90;;;;;;5051494;28;20214;-57
2022/02/04 16:54:07;;;;;;;26.20;13.07;;;8.00;99.90;;;;;;5047732;28;20225;-57
2022/02/04 16:56:34;;;;;;;19.20;11.50;;;7.90;99.90;;;;;;5043064;28;20209;-58
2022/02/04 16:59:01;;;;;;;26.30;12.67;;;7.90;99.90;;;;;;5051758;28;20252;-58
2022/02/04 17:01:29;;;;;;;24.73;13.33;;;8.00;99.90;;;;;;5051881;28;20198;-58
2022/02/04 17:03:58;;;;;;;25.93;13.57;;;7.90;99.90;;;;;;5051576;28;20660;-57
2022/02/04 17:06:32;;;;;;;24.83;12.97;;;7.90;99.90;;;;;;5043833;28;20676;-58
2022/02/04 17:09:19;;;;;;;25.97;13.13;;;7.90;99.90;;;;;;5040163;28;20208;-57
2022/02/04 17:11:47;;;;;;;25.03;12.43;;;7.90;99.90;;;;;;5049181;28;20194;-56
2022/02/04 17:14:15;;;;;;;28.20;14.53;;;7.90;99.90;;;;;;5051049;28;20208;-58
2022/02/04 17:16:43;;;;;;;31.77;14.47;;;7.90;99.90;;;;;;5050570;28;20282;-58
2022/02/04 17:19:12;;;;;;;25.73;13.87;;;7.80;99.90;;;;;;5033096;28;20190;-58
2022/02/04 17:21:40;;;;;;;20.90;11.20;;;7.90;99.90;;;;;;5051128;28;20194;-58
2022/02/04 17:24:12;;;;;;;23.33;12.27;;;7.90;99.90;;;;;;5051048;28;20198;-56
2022/02/04 17:26:40;;;;;;;23.67;13.23;;;7.90;99.90;;;;;;5030067;28;20212;-58
2022/02/04 17:29:08;;;;;;;25.80;13.37;;;7.90;99.90;;;;;;5051434;28;20210;-58
2022/02/04 17:31:36;;;;;;;21.67;11.60;;;7.90;99.90;;;;;;5050567;28;20281;-58
2022/02/04 17:34:04;;;;;;;27.43;14.57;;;7.90;99.90;;;;;;5051206;28;20305;-57
2022/02/04 17:36:34;;;;;;;27.03;14.63;;;7.90;99.90;;;;;;5040625;28;20687;-58
2022/02/04 17:39:02;;;;;;;22.13;12.23;;;7.90;99.90;;;;;;5042329;28;20194;-59
2022/02/04 17:41:29;;;;;;;24.53;12.80;;;7.90;99.90;;;;;;5048907;28;20228;-58